sensor_id;sensor_type;location;lat;lon;timestamp;temperature;humidity
54796;DHT22;40693;43.884;20.340;2023-11-21T00:02:20;205.50;2252.80
54796;DHT22;40693;43.884;20.340;2023-11-21T00:04:48;205.40;2252.80
54796;DHT22;40693;43.884;20.340;2023-11-21T00:07:14;205.30;2252.80
54796;DHT22;40693;43.884;20.340;2023-11-21T00:09:40;205.30;2252.80
54796;DHT22;40693;43.884;20.340;2023-11-21T00:12:07;205.30;2252.80
54796;DHT22;40693;43.884;20.340;2023-11-21T00:14:36;205.30;2252.80
54796;DHT22;40693;43.884;20.340;2023-11-21T00:17:02;205.30;2252.80
54796;DHT22;40693;43.884;20.340;2023-11-21T00:19:28;205.30;2252.80
54796;DHT22;40693;43.884;20.340;2023-11-21T00:21:54;205.30;2252.80
54796;DHT22;40693;43.884;20.340;2023-11-21T00:24:19;205.30;2252.80
54796;DHT22;40693;43.884;20.340;2023-11-21T00:26:45;205.30;2252.80
54796;DHT22;40693;43.884;20.340;2023-11-21T00:29:11;205.30;2252.80
54796;DHT22;40693;43.884;20.340;2023-11-21T00:31:37;205.40;2252.80
54796;DHT22;40693;43.884;20.340;2023-11-21T00:34:04;205.40;2252.80
54796;DHT22;40693;43.884;20.340;2023-11-21T00:36:32;205.40;2252.80
54796;DHT22;40693;43.884;20.340;2023-11-21T00:38:58;205.30;2252.80
54796;DHT22;40693;43.884;20.340;2023-11-21T00:41:25;205.30;2252.80
54796;DHT22;40693;43.884;20.340;2023-11-21T00:43:53;205.30;2252.80
54796;DHT22;40693;43.884;20.340;2023-11-21T00:46:19;205.30;2252.80
54796;DHT22;40693;43.884;20.340;2023-11-21T00:48:45;205.40;2252.80
54796;DHT22;40693;43.884;20.340;2023-11-21T00:51:11;205.40;2252.80
54796;DHT22;40693;43.884;20.340;2023-11-21T00:53:36;205.30;2252.80
54796;DHT22;40693;43.884;20.340;2023-11-21T00:56:02;205.30;2252.80
54796;DHT22;40693;43.884;20.340;2023-11-21T00:58:28;205.30;2252.80
54796;DHT22;40693;43.884;20.340;2023-11-21T01:00:54;205.30;2252.80
54796;DHT22;40693;43.884;20.340;2023-11-21T01:03:20;205.30;2252.80
54796;DHT22;40693;43.884;20.340;2023-11-21T01:05:46;205.30;2252.80
54796;DHT22;40693;43.884;20.340;2023-11-21T01:08:12;205.30;2252.80
54796;DHT22;40693;43.884;20.340;2023-11-21T01:10:38;205.30;2252.80
54796;DHT22;40693;43.884;20.340;2023-11-21T01:13:04;205.20;2252.80
54796;DHT22;40693;43.884;20.340;2023-11-21T01:15:30;205.30;2252.80
54796;DHT22;40693;43.884;20.340;2023-11-21T01:17:56;205.30;2252.80
54796;DHT22;40693;43.884;20.340;2023-11-21T01:20:22;205.20;2252.80
54796;DHT22;40693;43.884;20.340;2023-11-21T01:22:47;205.20;2252.80
54796;DHT22;40693;43.884;20.340;2023-11-21T01:25:14;205.20;2252.80
54796;DHT22;40693;43.884;20.340;2023-11-21T01:27:41;205.30;2252.80
54796;DHT22;40693;43.884;20.340;2023-11-21T01:30:08;205.20;2252.80
54796;DHT22;40693;43.884;20.340;2023-11-21T01:32:36;205.20;2252.80
54796;DHT22;40693;43.884;20.340;2023-11-21T01:35:02;205.20;2252.80
54796;DHT22;40693;43.884;20.340;2023-11-21T01:37:31;205.20;2252.80
54796;DHT22;40693;43.884;20.340;2023-11-21T01:39:56;205.20;2252.80
54796;DHT22;40693;43.884;20.340;2023-11-21T01:42:22;205.20;2252.80
54796;DHT22;40693;43.884;20.340;2023-11-21T01:44:48;205.20;2252.80
54796;DHT22;40693;43.884;20.340;2023-11-21T01:47:15;205.20;2252.80
54796;DHT22;40693;43.884;20.340;2023-11-21T01:49:44;205.20;2252.80
54796;DHT22;40693;43.884;20.340;2023-11-21T01:52:11;205.20;2252.80
54796;DHT22;40693;43.884;20.340;2023-11-21T01:54:37;205.20;2252.80
54796;DHT22;40693;43.884;20.340;2023-11-21T01:57:04;205.20;2252.80
54796;DHT22;40693;43.884;20.340;2023-11-21T01:59:35;205.20;2252.80
54796;DHT22;40693;43.884;20.340;2023-11-21T02:02:05;205.20;2252.80
54796;DHT22;40693;43.884;20.340;2023-11-21T02:04:32;205.20;2252.80
54796;DHT22;40693;43.884;20.340;2023-11-21T02:06:59;205.10;2252.80
54796;DHT22;40693;43.884;20.340;2023-11-21T02:09:27;205.10;2252.80
54796;DHT22;40693;43.884;20.340;2023-11-21T02:11:55;205.10;2252.80
54796;DHT22;40693;43.884;20.340;2023-11-21T02:14:21;205.10;2252.80
54796;DHT22;40693;43.884;20.340;2023-11-21T02:16:50;205.00;2252.80
54796;DHT22;40693;43.884;20.340;2023-11-21T02:19:18;205.10;2252.80
54796;DHT22;40693;43.884;20.340;2023-11-21T02:21:51;205.00;2252.80
54796;DHT22;40693;43.884;20.340;2023-11-21T02:24:21;205.00;2252.80
54796;DHT22;40693;43.884;20.340;2023-11-21T02:26:50;205.00;2252.80
54796;DHT22;40693;43.884;20.340;2023-11-21T02:29:19;205.00;2252.80
54796;DHT22;40693;43.884;20.340;2023-11-21T02:31:48;205.00;2252.80
54796;DHT22;40693;43.884;20.340;2023-11-21T02:34:15;205.00;2252.80
54796;DHT22;40693;43.884;20.340;2023-11-21T02:36:41;205.00;2252.80
54796;DHT22;40693;43.884;20.340;2023-11-21T02:39:08;205.00;2252.80
54796;DHT22;40693;43.884;20.340;2023-11-21T02:41:34;205.00;2252.80
54796;DHT22;40693;43.884;20.340;2023-11-21T02:44:00;205.00;2252.80
54796;DHT22;40693;43.884;20.340;2023-11-21T02:46:26;205.00;2252.80
54796;DHT22;40693;43.884;20.340;2023-11-21T02:48:52;205.00;2252.80
54796;DHT22;40693;43.884;20.340;2023-11-21T02:51:20;205.00;2252.80
54796;DHT22;40693;43.884;20.340;2023-11-21T02:53:46;205.00;2252.80
54796;DHT22;40693;43.884;20.340;2023-11-21T02:56:16;205.00;2252.80
54796;DHT22;40693;43.884;20.340;2023-11-21T02:58:43;205.00;2252.80
54796;DHT22;40693;43.884;20.340;2023-11-21T03:01:09;205.00;2252.80
54796;DHT22;40693;43.884;20.340;2023-11-21T03:03:37;205.00;2252.80
54796;DHT22;40693;43.884;20.340;2023-11-21T03:06:06;204.90;2252.80
54796;DHT22;40693;43.884;20.340;2023-11-21T03:08:32;204.90;2252.80
54796;DHT22;40693;43.884;20.340;2023-11-21T03:10:58;204.90;2252.80
54796;DHT22;40693;43.884;20.340;2023-11-21T03:13:24;204.80;2252.80
54796;DHT22;40693;43.884;20.340;2023-11-21T03:15:50;204.80;2252.80
54796;DHT22;40693;43.884;20.340;2023-11-21T03:18:15;204.80;2252.80
54796;DHT22;40693;43.884;20.340;2023-11-21T03:20:43;204.80;2252.80
54796;DHT22;40693;43.884;20.340;2023-11-21T03:23:11;204.90;2252.80
54796;DHT22;40693;43.884;20.340;2023-11-21T03:25:37;204.90;2252.80
54796;DHT22;40693;43.884;20.340;2023-11-21T03:28:03;204.80;2252.80
54796;DHT22;40693;43.884;20.340;2023-11-21T03:30:29;204.80;2252.80
54796;DHT22;40693;43.884;20.340;2023-11-21T03:32:55;204.80;2252.80
54796;DHT22;40693;43.884;20.340;2023-11-21T03:35:20;204.80;2252.80
54796;DHT22;40693;43.884;20.340;2023-11-21T03:37:47;204.80;2252.80
54796;DHT22;40693;43.884;20.340;2023-11-21T03:40:12;204.80;2252.80
54796;DHT22;40693;43.884;20.340;2023-11-21T03:42:39;204.80;2252.80
54796;DHT22;40693;43.884;20.340;2023-11-21T03:45:05;204.80;2252.80
54796;DHT22;40693;43.884;20.340;2023-11-21T03:47:31;204.80;2252.80
54796;DHT22;40693;43.884;20.340;2023-11-21T03:49:57;180.10;2252.80
54796;DHT22;40693;43.884;20.340;2023-11-21T03:52:23;180.10;2252.80
54796;DHT22;40693;43.884;20.340;2023-11-21T03:54:49;180.10;2252.80
54796;DHT22;40693;43.884;20.340;2023-11-21T03:57:15;180.00;2252.80
54796;DHT22;40693;43.884;20.340;2023-11-21T03:59:41;180.10;2252.80
54796;DHT22;40693;43.884;20.340;2023-11-21T04:02:07;180.10;2252.80
54796;DHT22;40693;43.884;20.340;2023-11-21T04:04:34;180.00;2252.80
54796;DHT22;40693;43.884;20.340;2023-11-21T04:06:59;180.00;2252.80
54796;DHT22;40693;43.884;20.340;2023-11-21T04:09:25;180.00;2252.80
54796;DHT22;40693;43.884;20.340;2023-11-21T04:11:52;180.00;2252.80
54796;DHT22;40693;43.884;20.340;2023-11-21T04:14:18;180.00;2252.80
54796;DHT22;40693;43.884;20.340;2023-11-21T04:16:44;180.00;2252.80
54796;DHT22;40693;43.884;20.340;2023-11-21T04:19:10;180.00;2252.80
54796;DHT22;40693;43.884;20.340;2023-11-21T04:21:37;180.00;2252.80
54796;DHT22;40693;43.884;20.340;2023-11-21T04:24:02;180.00;2252.80
54796;DHT22;40693;43.884;20.340;2023-11-21T04:26:28;180.00;2252.80
54796;DHT22;40693;43.884;20.340;2023-11-21T04:28:54;180.00;2252.80
54796;DHT22;40693;43.884;20.340;2023-11-21T04:31:20;180.10;2252.80
54796;DHT22;40693;43.884;20.340;2023-11-21T04:33:45;180.10;2252.80
54796;DHT22;40693;43.884;20.340;2023-11-21T04:36:11;180.10;2252.80
54796;DHT22;40693;43.884;20.340;2023-11-21T04:38:37;180.00;2252.80
54796;DHT22;40693;43.884;20.340;2023-11-21T04:41:02;180.00;2252.80
54796;DHT22;40693;43.884;20.340;2023-11-21T04:43:29;180.00;2252.80
54796;DHT22;40693;43.884;20.340;2023-11-21T04:45:55;180.00;2252.80
54796;DHT22;40693;43.884;20.340;2023-11-21T04:48:20;180.10;2252.80
54796;DHT22;40693;43.884;20.340;2023-11-21T04:50:46;180.10;2252.80
54796;DHT22;40693;43.884;20.340;2023-11-21T04:53:12;180.10;2252.80
54796;DHT22;40693;43.884;20.340;2023-11-21T04:55:40;180.10;2252.80
54796;DHT22;40693;43.884;20.340;2023-11-21T04:58:07;204.80;2252.80
54796;DHT22;40693;43.884;20.340;2023-11-21T05:00:34;180.10;2252.80
54796;DHT22;40693;43.884;20.340;2023-11-21T05:02:59;180.10;2252.80
54796;DHT22;40693;43.884;20.340;2023-11-21T05:05:27;180.10;2252.80
54796;DHT22;40693;43.884;20.340;2023-11-21T05:07:52;180.10;2252.80
54796;DHT22;40693;43.884;20.340;2023-11-21T05:10:19;180.10;2252.80
54796;DHT22;40693;43.884;20.340;2023-11-21T05:12:45;180.10;2252.80
54796;DHT22;40693;43.884;20.340;2023-11-21T05:15:14;180.10;2252.80
54796;DHT22;40693;43.884;20.340;2023-11-21T05:17:41;204.80;2252.80
54796;DHT22;40693;43.884;20.340;2023-11-21T05:20:10;180.10;2252.80
54796;DHT22;40693;43.884;20.340;2023-11-21T05:22:37;180.10;2252.80
54796;DHT22;40693;43.884;20.340;2023-11-21T05:25:03;204.80;2252.80
54796;DHT22;40693;43.884;20.340;2023-11-21T05:27:30;204.80;2252.80
54796;DHT22;40693;43.884;20.340;2023-11-21T05:29:58;180.10;2252.80
54796;DHT22;40693;43.884;20.340;2023-11-21T05:32:25;180.00;2252.80
54796;DHT22;40693;43.884;20.340;2023-11-21T05:34:51;180.00;2252.80
54796;DHT22;40693;43.884;20.340;2023-11-21T05:37:17;180.00;2252.80
54796;DHT22;40693;43.884;20.340;2023-11-21T05:39:43;180.00;2252.80
54796;DHT22;40693;43.884;20.340;2023-11-21T05:42:09;180.00;2252.80
54796;DHT22;40693;43.884;20.340;2023-11-21T05:44:40;180.00;2252.80
54796;DHT22;40693;43.884;20.340;2023-11-21T05:47:06;180.10;2252.80
54796;DHT22;40693;43.884;20.340;2023-11-21T05:49:33;180.10;2252.80
54796;DHT22;40693;43.884;20.340;2023-11-21T05:51:58;180.10;2252.80
54796;DHT22;40693;43.884;20.340;2023-11-21T05:54:25;180.10;2252.80
54796;DHT22;40693;43.884;20.340;2023-11-21T05:56:51;180.10;2252.80
54796;DHT22;40693;43.884;20.340;2023-11-21T05:59:17;180.10;2252.80
54796;DHT22;40693;43.884;20.340;2023-11-21T06:01:43;180.10;2252.80
54796;DHT22;40693;43.884;20.340;2023-11-21T06:04:08;180.10;2252.80
54796;DHT22;40693;43.884;20.340;2023-11-21T06:06:35;180.10;2252.80
54796;DHT22;40693;43.884;20.340;2023-11-21T06:09:01;180.00;2252.80
54796;DHT22;40693;43.884;20.340;2023-11-21T06:11:27;179.90;2252.80
54796;DHT22;40693;43.884;20.340;2023-11-21T06:13:52;179.90;2252.80
54796;DHT22;40693;43.884;20.340;2023-11-21T06:16:21;179.90;2252.80
54796;DHT22;40693;43.884;20.340;2023-11-21T06:18:46;180.00;2252.80
54796;DHT22;40693;43.884;20.340;2023-11-21T06:21:13;180.00;2252.80
54796;DHT22;40693;43.884;20.340;2023-11-21T06:23:39;180.00;2252.80
54796;DHT22;40693;43.884;20.340;2023-11-21T06:26:05;180.10;2252.80
54796;DHT22;40693;43.884;20.340;2023-11-21T06:28:32;180.10;2252.80
54796;DHT22;40693;43.884;20.340;2023-11-21T06:30:57;180.10;2252.80
54796;DHT22;40693;43.884;20.340;2023-11-21T06:33:24;204.80;2252.80
54796;DHT22;40693;43.884;20.340;2023-11-21T06:35:52;204.80;2252.80
54796;DHT22;40693;43.884;20.340;2023-11-21T06:38:18;204.80;2252.80
54796;DHT22;40693;43.884;20.340;2023-11-21T06:40:45;204.80;2252.80
54796;DHT22;40693;43.884;20.340;2023-11-21T06:43:11;204.80;2252.80
54796;DHT22;40693;43.884;20.340;2023-11-21T06:45:36;204.80;2252.80
54796;DHT22;40693;43.884;20.340;2023-11-21T06:48:02;204.80;2252.80
54796;DHT22;40693;43.884;20.340;2023-11-21T06:50:28;204.80;2252.80
54796;DHT22;40693;43.884;20.340;2023-11-21T06:52:53;204.90;2252.80
54796;DHT22;40693;43.884;20.340;2023-11-21T06:55:19;204.90;2252.80
54796;DHT22;40693;43.884;20.340;2023-11-21T06:57:45;204.90;2252.80
54796;DHT22;40693;43.884;20.340;2023-11-21T07:00:14;204.90;2252.80
54796;DHT22;40693;43.884;20.340;2023-11-21T07:02:40;205.00;2252.80
54796;DHT22;40693;43.884;20.340;2023-11-21T07:05:06;205.00;2252.80
54796;DHT22;40693;43.884;20.340;2023-11-21T07:07:32;205.00;2252.80
54796;DHT22;40693;43.884;20.340;2023-11-21T07:10:01;205.00;2252.80
54796;DHT22;40693;43.884;20.340;2023-11-21T07:12:30;205.10;2252.80
54796;DHT22;40693;43.884;20.340;2023-11-21T07:14:57;205.10;2252.80
54796;DHT22;40693;43.884;20.340;2023-11-21T07:17:23;205.20;2252.80
54796;DHT22;40693;43.884;20.340;2023-11-21T07:19:49;205.20;2252.80
54796;DHT22;40693;43.884;20.340;2023-11-21T07:22:15;205.10;2252.80
54796;DHT22;40693;43.884;20.340;2023-11-21T07:24:48;205.10;2252.80
54796;DHT22;40693;43.884;20.340;2023-11-21T07:27:17;205.00;2252.80
54796;DHT22;40693;43.884;20.340;2023-11-21T07:29:44;205.00;2252.80
54796;DHT22;40693;43.884;20.340;2023-11-21T07:32:09;205.10;2252.80
54796;DHT22;40693;43.884;20.340;2023-11-21T07:34:36;205.10;2252.80
54796;DHT22;40693;43.884;20.340;2023-11-21T07:37:02;205.10;2252.80
54796;DHT22;40693;43.884;20.340;2023-11-21T07:39:28;205.20;2252.80
54796;DHT22;40693;43.884;20.340;2023-11-21T07:41:54;205.20;2252.80
54796;DHT22;40693;43.884;20.340;2023-11-21T07:44:20;205.20;2252.80
54796;DHT22;40693;43.884;20.340;2023-11-21T07:46:46;205.30;2252.80
54796;DHT22;40693;43.884;20.340;2023-11-21T07:49:12;205.30;2252.80
54796;DHT22;40693;43.884;20.340;2023-11-21T07:51:41;205.30;2252.80
54796;DHT22;40693;43.884;20.340;2023-11-21T07:54:07;205.30;2252.80
54796;DHT22;40693;43.884;20.340;2023-11-21T07:56:33;205.30;2252.80
54796;DHT22;40693;43.884;20.340;2023-11-21T07:58:59;205.30;2252.80
54796;DHT22;40693;43.884;20.340;2023-11-21T08:01:24;205.20;2252.80
54796;DHT22;40693;43.884;20.340;2023-11-21T08:03:50;205.20;2252.80
54796;DHT22;40693;43.884;20.340;2023-11-21T08:06:18;205.20;2252.80
54796;DHT22;40693;43.884;20.340;2023-11-21T08:08:43;205.30;2252.80
54796;DHT22;40693;43.884;20.340;2023-11-21T08:11:09;205.30;2252.80
54796;DHT22;40693;43.884;20.340;2023-11-21T08:13:36;205.40;2252.80
54796;DHT22;40693;43.884;20.340;2023-11-21T08:16:02;205.50;2252.80
54796;DHT22;40693;43.884;20.340;2023-11-21T08:18:30;205.60;2252.80
54796;DHT22;40693;43.884;20.340;2023-11-21T08:20:56;205.70;2252.80
54796;DHT22;40693;43.884;20.340;2023-11-21T08:23:22;205.70;2252.80
54796;DHT22;40693;43.884;20.340;2023-11-21T08:25:51;230.40;2252.80
54796;DHT22;40693;43.884;20.340;2023-11-21T08:28:17;230.40;2252.80
54796;DHT22;40693;43.884;20.340;2023-11-21T08:30:43;230.50;2252.80
54796;DHT22;40693;43.884;20.340;2023-11-21T08:33:09;230.50;2252.80
54796;DHT22;40693;43.884;20.340;2023-11-21T08:35:36;230.80;2252.80
54796;DHT22;40693;43.884;20.340;2023-11-21T08:38:03;230.70;2252.80
54796;DHT22;40693;43.884;20.340;2023-11-21T08:40:29;230.70;2252.80
54796;DHT22;40693;43.884;20.340;2023-11-21T08:42:58;230.70;2252.80
54796;DHT22;40693;43.884;20.340;2023-11-21T08:45:32;230.80;2252.80
54796;DHT22;40693;43.884;20.340;2023-11-21T08:48:00;230.80;2252.80
54796;DHT22;40693;43.884;20.340;2023-11-21T08:50:29;230.80;2252.80
54796;DHT22;40693;43.884;20.340;2023-11-21T08:52:54;230.70;2252.80
54796;DHT22;40693;43.884;20.340;2023-11-21T08:55:30;230.90;2252.80
54796;DHT22;40693;43.884;20.340;2023-11-21T08:57:55;230.90;2252.80
54796;DHT22;40693;43.884;20.340;2023-11-21T09:00:21;231.00;2252.80
54796;DHT22;40693;43.884;20.340;2023-11-21T09:02:47;231.00;2252.80
54796;DHT22;40693;43.884;20.340;2023-11-21T09:05:15;230.90;2252.80
54796;DHT22;40693;43.884;20.340;2023-11-21T09:07:42;230.90;2252.80
54796;DHT22;40693;43.884;20.340;2023-11-21T09:10:08;230.90;2252.80
54796;DHT22;40693;43.884;20.340;2023-11-21T09:12:35;230.90;2252.80
54796;DHT22;40693;43.884;20.340;2023-11-21T09:15:04;230.90;2252.80
54796;DHT22;40693;43.884;20.340;2023-11-21T09:17:33;231.00;2252.80
54796;DHT22;40693;43.884;20.340;2023-11-21T09:19:59;231.00;2252.80
54796;DHT22;40693;43.884;20.340;2023-11-21T09:22:25;231.10;2252.80
54796;DHT22;40693;43.884;20.340;2023-11-21T09:24:51;231.10;2252.80
54796;DHT22;40693;43.884;20.340;2023-11-21T09:27:17;231.10;2252.80
54796;DHT22;40693;43.884;20.340;2023-11-21T09:29:43;231.10;2252.80
54796;DHT22;40693;43.884;20.340;2023-11-21T09:32:09;231.20;2252.80
54796;DHT22;40693;43.884;20.340;2023-11-21T09:34:38;231.20;2252.80
54796;DHT22;40693;43.884;20.340;2023-11-21T09:37:04;231.30;2252.80
54796;DHT22;40693;43.884;20.340;2023-11-21T09:39:32;231.30;2252.80
54796;DHT22;40693;43.884;20.340;2023-11-21T09:42:11;256.00;2252.80
54796;DHT22;40693;43.884;20.340;2023-11-21T09:47:10;256.00;2252.80
54796;DHT22;40693;43.884;20.340;2023-11-21T09:49:39;231.30;2252.80
54796;DHT22;40693;43.884;20.340;2023-11-21T09:52:08;231.20;2252.80
54796;DHT22;40693;43.884;20.340;2023-11-21T09:54:35;231.20;2252.80
54796;DHT22;40693;43.884;20.340;2023-11-21T09:57:02;231.20;2252.80
54796;DHT22;40693;43.884;20.340;2023-11-21T09:59:30;231.10;2252.80
54796;DHT22;40693;43.884;20.340;2023-11-21T10:01:58;231.20;2252.80
54796;DHT22;40693;43.884;20.340;2023-11-21T10:04:24;231.20;2252.80
54796;DHT22;40693;43.884;20.340;2023-11-21T10:06:53;231.20;2252.80
54796;DHT22;40693;43.884;20.340;2023-11-21T10:09:19;231.20;2252.80
54796;DHT22;40693;43.884;20.340;2023-11-21T10:11:47;231.30;2252.80
54796;DHT22;40693;43.884;20.340;2023-11-21T10:14:18;231.30;2252.80
54796;DHT22;40693;43.884;20.340;2023-11-21T10:16:46;231.30;2252.80
54796;DHT22;40693;43.884;20.340;2023-11-21T10:19:14;231.30;2252.80
54796;DHT22;40693;43.884;20.340;2023-11-21T10:21:41;231.30;2252.80
54796;DHT22;40693;43.884;20.340;2023-11-21T10:24:07;231.20;2252.80
54796;DHT22;40693;43.884;20.340;2023-11-21T10:26:34;231.20;2252.80
54796;DHT22;40693;43.884;20.340;2023-11-21T10:29:01;231.10;2252.80
54796;DHT22;40693;43.884;20.340;2023-11-21T10:31:30;231.10;2252.80
54796;DHT22;40693;43.884;20.340;2023-11-21T10:34:12;231.10;2252.80
54796;DHT22;40693;43.884;20.340;2023-11-21T10:36:38;231.20;2252.80
54796;DHT22;40693;43.884;20.340;2023-11-21T10:39:03;231.20;2252.80
54796;DHT22;40693;43.884;20.340;2023-11-21T10:41:29;231.30;2252.80
54796;DHT22;40693;43.884;20.340;2023-11-21T10:43:55;231.30;2252.80
54796;DHT22;40693;43.884;20.340;2023-11-21T10:46:21;231.30;2252.80
54796;DHT22;40693;43.884;20.340;2023-11-21T10:48:53;256.00;2252.80
54796;DHT22;40693;43.884;20.340;2023-11-21T10:51:22;256.00;2252.80
54796;DHT22;40693;43.884;20.340;2023-11-21T10:53:51;256.00;2252.80
54796;DHT22;40693;43.884;20.340;2023-11-21T10:56:18;231.20;2252.80
54796;DHT22;40693;43.884;20.340;2023-11-21T10:58:45;231.20;2252.80
54796;DHT22;40693;43.884;20.340;2023-11-21T11:01:11;231.30;2252.80
54796;DHT22;40693;43.884;20.340;2023-11-21T11:03:41;231.30;2252.80
54796;DHT22;40693;43.884;20.340;2023-11-21T11:06:07;231.20;2252.80
54796;DHT22;40693;43.884;20.340;2023-11-21T11:08:37;231.20;2252.80
54796;DHT22;40693;43.884;20.340;2023-11-21T11:11:05;231.20;2252.80
54796;DHT22;40693;43.884;20.340;2023-11-21T11:13:31;231.20;2252.80
54796;DHT22;40693;43.884;20.340;2023-11-21T11:16:00;231.20;2252.80
54796;DHT22;40693;43.884;20.340;2023-11-21T11:18:28;231.20;2252.80
54796;DHT22;40693;43.884;20.340;2023-11-21T11:21:01;231.20;2252.80
54796;DHT22;40693;43.884;20.340;2023-11-21T11:28:38;231.10;2252.80
54796;DHT22;40693;43.884;20.340;2023-11-21T11:31:33;231.10;2252.80
54796;DHT22;40693;43.884;20.340;2023-11-21T11:34:26;231.10;2252.80
54796;DHT22;40693;43.884;20.340;2023-11-21T11:37:01;231.00;2252.80
54796;DHT22;40693;43.884;20.340;2023-11-21T11:39:33;231.00;2252.80
54796;DHT22;40693;43.884;20.340;2023-11-21T11:42:06;231.00;2252.80
54796;DHT22;40693;43.884;20.340;2023-11-21T11:52:35;231.10;2252.80
54796;DHT22;40693;43.884;20.340;2023-11-21T11:55:02;231.10;2252.80
54796;DHT22;40693;43.884;20.340;2023-11-21T11:57:34;231.10;2252.80
54796;DHT22;40693;43.884;20.340;2023-11-21T12:00:10;231.10;2252.80
54796;DHT22;40693;43.884;20.340;2023-11-21T12:02:51;231.10;2252.80
54796;DHT22;40693;43.884;20.340;2023-11-21T12:05:19;231.10;2252.80
54796;DHT22;40693;43.884;20.340;2023-11-21T12:10:19;231.10;2252.80
54796;DHT22;40693;43.884;20.340;2023-11-21T12:12:49;231.10;2252.80
54796;DHT22;40693;43.884;20.340;2023-11-21T12:15:15;231.10;2252.80
54796;DHT22;40693;43.884;20.340;2023-11-21T12:17:43;231.10;2252.80
54796;DHT22;40693;43.884;20.340;2023-11-21T12:20:09;231.10;2252.80
54796;DHT22;40693;43.884;20.340;2023-11-21T12:22:59;231.10;2252.80
54796;DHT22;40693;43.884;20.340;2023-11-21T12:25:29;256.00;2252.80
54796;DHT22;40693;43.884;20.340;2023-11-21T12:27:58;231.10;2252.80
54796;DHT22;40693;43.884;20.340;2023-11-21T12:30:31;231.20;2252.80
54796;DHT22;40693;43.884;20.340;2023-11-21T12:32:59;231.20;2252.80
54796;DHT22;40693;43.884;20.340;2023-11-21T12:35:27;231.20;2252.80
54796;DHT22;40693;43.884;20.340;2023-11-21T12:37:55;231.20;2252.80
54796;DHT22;40693;43.884;20.340;2023-11-21T12:40:23;231.20;2252.80
54796;DHT22;40693;43.884;20.340;2023-11-21T12:42:53;231.20;2252.80
54796;DHT22;40693;43.884;20.340;2023-11-21T12:47:50;231.20;2252.80
54796;DHT22;40693;43.884;20.340;2023-11-21T12:50:29;231.20;2252.80
54796;DHT22;40693;43.884;20.340;2023-11-21T12:53:04;231.20;2252.80
54796;DHT22;40693;43.884;20.340;2023-11-21T12:55:34;231.20;2252.80
54796;DHT22;40693;43.884;20.340;2023-11-21T12:58:09;231.20;2252.80
54796;DHT22;40693;43.884;20.340;2023-11-21T13:00:44;231.20;2252.80
54796;DHT22;40693;43.884;20.340;2023-11-21T13:03:12;231.20;2252.80
54796;DHT22;40693;43.884;20.340;2023-11-21T13:05:42;231.20;2252.80
54796;DHT22;40693;43.884;20.340;2023-11-21T13:08:11;231.10;2252.80
54796;DHT22;40693;43.884;20.340;2023-11-21T13:10:43;231.20;2252.80
54796;DHT22;40693;43.884;20.340;2023-11-21T13:13:12;231.10;2252.80
54796;DHT22;40693;43.884;20.340;2023-11-21T13:15:50;231.10;2252.80
54796;DHT22;40693;43.884;20.340;2023-11-21T13:18:16;231.20;2252.80
54796;DHT22;40693;43.884;20.340;2023-11-21T13:20:43;231.10;2252.80
54796;DHT22;40693;43.884;20.340;2023-11-21T13:23:09;231.10;2252.80
54796;DHT22;40693;43.884;20.340;2023-11-21T13:25:38;231.10;2252.80
54796;DHT22;40693;43.884;20.340;2023-11-21T13:28:06;231.10;2252.80
54796;DHT22;40693;43.884;20.340;2023-11-21T13:30:32;231.10;2252.80
54796;DHT22;40693;43.884;20.340;2023-11-21T13:33:06;231.10;2252.80
54796;DHT22;40693;43.884;20.340;2023-11-21T13:35:37;231.10;2252.80
54796;DHT22;40693;43.884;20.340;2023-11-21T13:38:09;231.00;2252.80
54796;DHT22;40693;43.884;20.340;2023-11-21T13:40:36;231.00;2252.80
54796;DHT22;40693;43.884;20.340;2023-11-21T13:43:08;231.00;2252.80
54796;DHT22;40693;43.884;20.340;2023-11-21T13:45:39;231.00;2252.80
54796;DHT22;40693;43.884;20.340;2023-11-21T13:48:05;230.90;2252.80
54796;DHT22;40693;43.884;20.340;2023-11-21T13:50:36;230.90;2252.80
54796;DHT22;40693;43.884;20.340;2023-11-21T13:53:02;230.90;2252.80
54796;DHT22;40693;43.884;20.340;2023-11-21T13:55:30;230.90;2252.80
54796;DHT22;40693;43.884;20.340;2023-11-21T13:57:56;230.90;2252.80
54796;DHT22;40693;43.884;20.340;2023-11-21T14:00:22;230.90;2252.80
54796;DHT22;40693;43.884;20.340;2023-11-21T14:03:20;230.90;2252.80
54796;DHT22;40693;43.884;20.340;2023-11-21T14:05:48;231.00;2252.80
54796;DHT22;40693;43.884;20.340;2023-11-21T14:08:20;230.90;2252.80
54796;DHT22;40693;43.884;20.340;2023-11-21T14:10:47;230.90;2252.80
54796;DHT22;40693;43.884;20.340;2023-11-21T14:13:21;230.90;2252.80
54796;DHT22;40693;43.884;20.340;2023-11-21T14:15:49;230.90;2252.80
54796;DHT22;40693;43.884;20.340;2023-11-21T14:18:19;231.00;2252.80
54796;DHT22;40693;43.884;20.340;2023-11-21T14:20:52;231.00;2252.80
54796;DHT22;40693;43.884;20.340;2023-11-21T14:23:18;231.10;2252.80
54796;DHT22;40693;43.884;20.340;2023-11-21T14:25:44;231.10;2252.80
54796;DHT22;40693;43.884;20.340;2023-11-21T14:28:10;231.10;2252.80
54796;DHT22;40693;43.884;20.340;2023-11-21T14:30:38;231.10;2252.80
54796;DHT22;40693;43.884;20.340;2023-11-21T14:33:05;231.10;2252.80
54796;DHT22;40693;43.884;20.340;2023-11-21T14:35:32;231.20;2252.80
54796;DHT22;40693;43.884;20.340;2023-11-21T14:37:58;231.20;2252.80
54796;DHT22;40693;43.884;20.340;2023-11-21T14:40:25;231.20;2252.80
54796;DHT22;40693;43.884;20.340;2023-11-21T14:42:51;231.10;2252.80
54796;DHT22;40693;43.884;20.340;2023-11-21T14:45:22;231.10;2252.80
54796;DHT22;40693;43.884;20.340;2023-11-21T14:47:51;231.00;2252.80
54796;DHT22;40693;43.884;20.340;2023-11-21T14:50:34;231.00;2252.80
54796;DHT22;40693;43.884;20.340;2023-11-21T14:53:29;230.90;2252.80
54796;DHT22;40693;43.884;20.340;2023-11-21T14:56:21;230.80;2252.80
54796;DHT22;40693;43.884;20.340;2023-11-21T14:58:53;230.70;2252.80
54796;DHT22;40693;43.884;20.340;2023-11-21T15:01:20;230.70;2252.80